San Luis, Arizona
Current Conditions -  °F | °C
As of 1:57 PM on Sunday 23 Nov 2014 (Local Time) from KNYL Reporting Station
Broken Clouds Broken Clouds  
Wind Chill: 76°   Ceiling: 32000
Heat Index: 76°   Visibility: 10mi
Dew Point:   Wind: 21mph
Humidity: 6%   Direction: 10°N
Pressure: 30.08"   Gusts: 30mph
Location:  32.49°N, 114.78°W
Report Text: KNYL 232057Z 01018G26KT 10SM BKN320 24/M15 A3008 RMK AO2 PK WND 03028/2016 SLP182 T02441150 58017 $
Loading
Personal Weather Stations






























Interactive Weather Map New forecast layout! Learn more

10-Day Weather Forecast

Advertisements
Track Severe Weather on mobile